KSJN

Details ICAO KSJN
Name ST JOHNS INDUSTRIAL AIR PARK
Region United States
Timezone America/Phoenix (UTC-7.0)
Plans Departing 2
Arriving 2
Stats Elevation 5,736 ft / 1,748 m (AMSL)
Location 34.518174° -109.378944°
Runways 2
Magnetic Variation 9.580° E
Sunrise 2017-12-17 14:19:42 UTC / 2017-12-17 07:19:42 Local
Sunset 2017-12-18 00:10:35 UTC / 2017-12-17 17:10:35 Local
Advertisement - Login to hide

Runways

ID Width Length Bearing (true) Bearing (mag) Surface Threshold Offset Overrun Length
03 60 ft / 18 m 3,402 ft / 1,037 m 36.84° 27.26° Asphalt 190 ft / 58 m 0 ft / 0 m
14 75 ft / 23 m 5,327 ft / 1,624 m 148.46° 138.88° Asphalt 0 ft / 0 m 0 ft / 0 m
21 60 ft / 18 m 3,402 ft / 1,037 m 216.84° 207.26° Asphalt 0 ft / 0 m 0 ft / 0 m
32 75 ft / 23 m 5,327 ft / 1,624 m 328.46° 318.88° Asphalt 92 ft / 28 m 0 ft / 0 m

Map

Weather


0- 5 10 15 20 25 30 35+ Temperature / ° C

Clouds and Precipitation
Forecast for 2017-12-17 12:00 UTC. Updated an hour ago

Ground ~20,000 ft ~40,000 ft Winds

METAR

KSJN 170954Z AUTO 00000KT 10SM OVC110 00/M16 A2994 RMK AO2 SLP110 T00001161 TSNO

TAF

Not found

Frequencies

Recorded 132.17 MHz ASOS
Unicom 122.80 MHz CTAF/UNICOM
Warning: Do not use this data for real-world aviation or navigation. No guarantee of current accuracy is given.